Hopkinton, MA

7:41 AM EST on November 21, 2014 (GMT -0500)
Saddle Hill Estates | Change Station
CLOSE
Current Station
Personal Weather Station
Location: Hopkinton, MA
Elevation: 497 ft
Nearby Weather Stations

Elev 497 ft 42.24 °N, 71.55 °W | Updated 2 seconds ago

Clear
Clear
25.0 °F
Feels Like 25 °F
N
1.6
Wind Variable Wind from WNW
Gusts 4.5 mph

Today
High -- | Low -- °F
--% Chance of Precip.
Yesterday
High -- | Low -- °F
Precip. -- in
6:43 AM 4:19 PM
Waning Crescent, 1% visible
Pressure 30.04 in
Visibility 10.0 miles
Clouds Clear
Windchill 25 °F
Dew Point 1 °F
Humidity 35%
Rainfall 0.00 in
Snow Depth Not available.
UV 0 out of 12
Pollen .10 out of 12
Air Quality Not available.
Flu Activity Not available.
METAR KORH 211154Z 26012KT 10SM CLR M07/M13 A2999 RMK AO2 SLP172 T10671133 11039 21067 53022

More Conditions Fewer Conditions

Pressure 30.04 in
Visibility 10.0 miles
Clouds Clear
Windchill 25 °F
Dew Point 1 °F
Humidity 35%
Rainfall 0.00 in
Snow Depth Not available.
UV 0 out of 12
Pollen .10 out of 12
Air Quality Not available.
Flu Activity Not available.
METAR KORH 211154Z 26012KT 10SM CLR M07/M13 A2999 RMK AO2 SLP172 T10671133 11039 21067 53022

More Conditions Fewer Conditions

10-Day Weather Forecast

Almanac

Astronomy

Nov. 21, 2014 Rise Set
Actual Time
Civil Twilight
Nautical Twilight
Astronomical Twilight
Moon
Length of Visible Light
Length of Day
Tomorrow will be .
, % of the Moon is Illuminated

Today's Extremes

State Highs State Lows

Community

WunderPhotos

Upload Photos

1,772,655 photos uploaded!

WunderBlogs® & News

Nearby

Air Quality

  Air Quality AQ Index Pollutant
Not available.

Snow Depth

Station Depth Elevation

Earthquake Activity

City Distance Mag. Time & Date
Minimum magnitude displayed is 2.5.

Coastal Water Temperatures

Place Temperature

Nearby Weather Stations